Portada
METAR-TAF:

METAR-TAF

Aeropuertos :

Hofu, Japón

latitud: 34-02N, longitud: 131-33E, altitud: 2 m

Observación

El informe se hizo hace 13 horas y 42 minutos, a las 11:20 UTC
Viento 2 kt con dirección variable
Temperatura 22°C
Humedad 83%
Presión 1007 hPa
Visibilidad 10 km o más
Escasas nubes a una altura de 3000 ft
Cielo nuboso a una altura de 4000 ft
Cielo nuboso

METAR: RJOF 061120Z VRB02KT 9999 FEW030 BKN040 BKN/// 22/19 Q1007 RMK 1CU030 5SC040 A2975

Hora: 10:02 (01:02 UTC)


TAF: falta

Observaciones y pronósticos meteorológicos de más de 4000 aeropuertos (mensajes METAR y TAF).

Los puntos amarillos y rojos representan las estaciones disponibles.

Ponga el ratón en el punto deseado para ver el nombre de la estación.

Haga clic para ver las observaciones y los pronósticos meteorológicos.

Para cambiar el mapa : haga clic en los botones verdes con una cruz de color negro para hacer un zoom, en el botón verde con un guión para alejar o en las flechas verdes para mapas adyacentes.


METAR-TAF: